createdAt,value
2022-10-13T00:01:24.427Z,74.99
2022-10-13T00:03:53.899Z,74.92
2022-10-13T00:06:27.170Z,74.90
2022-10-13T00:08:56.802Z,74.33
2022-10-13T00:11:28.503Z,74.19
2022-10-13T00:14:02.753Z,74.20
2022-10-13T00:16:33.021Z,74.51
2022-10-13T00:19:01.641Z,74.85
2022-10-13T00:21:30.000Z,74.71
2022-10-13T00:23:58.497Z,75.36
2022-10-13T00:26:27.986Z,75.78
2022-10-13T00:28:56.719Z,75.90
2022-10-13T00:31:29.150Z,76.21
2022-10-13T00:34:02.025Z,75.89
2022-10-13T00:36:30.824Z,75.83
2022-10-13T00:38:59.401Z,76.29
2022-10-13T00:41:27.881Z,76.42
2022-10-13T00:44:26.920Z,76.35
2022-10-13T00:46:55.259Z,76.50
2022-10-13T00:49:23.837Z,76.56
2022-10-13T00:51:52.110Z,77.09
2022-10-13T00:54:23.928Z,76.89
2022-10-13T00:56:54.179Z,76.87
2022-10-13T00:59:29.391Z,76.72
2022-10-13T01:01:59.662Z,76.73
2022-10-13T01:04:34.754Z,76.45
2022-10-13T01:07:04.489Z,76.07
2022-10-13T01:09:37.925Z,76.02
2022-10-13T01:12:27.886Z,75.71
2022-10-13T01:15:30.255Z,75.81
2022-10-13T01:18:10.944Z,75.87
2022-10-13T01:20:48.483Z,75.99
2022-10-13T01:23:44.052Z,76.24
2022-10-13T01:26:43.115Z,76.83
2022-10-13T01:29:40.280Z,76.75
2022-10-13T01:32:47.474Z,76.48
2022-10-13T01:35:27.344Z,76.64
2022-10-13T01:38:21.045Z,77.17
2022-10-13T01:41:00.847Z,77.18
2022-10-13T01:43:37.616Z,77.30
2022-10-13T01:46:23.359Z,77.33
2022-10-13T01:48:56.389Z,77.37
2022-10-13T01:51:27.330Z,77.57
2022-10-13T01:53:56.163Z,77.44
2022-10-13T01:56:24.432Z,78.04
2022-10-13T01:58:55.679Z,78.88
2022-10-13T02:01:35.517Z,79.16
2022-10-13T02:04:15.761Z,80.51
2022-10-13T02:07:16.179Z,80.69
2022-10-13T02:10:13.220Z,81.03
2022-10-13T02:12:56.890Z,81.00
2022-10-13T02:15:33.329Z,80.39
2022-10-13T02:18:04.784Z,80.63
2022-10-13T02:20:33.760Z,80.66
2022-10-13T02:23:09.580Z,80.05
2022-10-13T02:25:38.785Z,79.89
2022-10-13T02:28:08.320Z,80.00
2022-10-13T02:30:45.654Z,80.18
2022-10-13T02:33:15.798Z,80.29
2022-10-13T02:35:44.266Z,80.30
2022-10-13T02:38:13.527Z,80.29
2022-10-13T02:40:41.885Z,79.96
2022-10-13T02:43:10.182Z,80.08
2022-10-13T02:45:38.567Z,79.84
2022-10-13T02:48:06.913Z,79.93
2022-10-13T02:50:35.350Z,80.54
2022-10-13T02:53:03.820Z,80.66
2022-10-13T02:55:32.073Z,80.56
2022-10-13T02:58:00.455Z,80.33
2022-10-13T03:00:29.024Z,80.31
2022-10-13T03:02:57.367Z,80.22
2022-10-13T03:05:25.668Z,80.83
2022-10-13T03:07:54.048Z,81.33
2022-10-13T03:10:22.776Z,81.65
2022-10-13T03:12:52.462Z,81.75
2022-10-13T03:15:20.809Z,81.79
2022-10-13T03:17:49.757Z,82.29
2022-10-13T03:20:18.401Z,82.37
2022-10-13T03:22:49.797Z,82.35
2022-10-13T03:25:18.532Z,82.44
2022-10-13T03:27:46.918Z,82.52
2022-10-13T03:30:15.303Z,82.31
2022-10-13T03:32:44.186Z,82.39
2022-10-13T03:35:12.879Z,82.39
2022-10-13T03:37:41.481Z,82.59
2022-10-13T03:40:10.884Z,82.51
2022-10-13T03:42:40.068Z,82.16
2022-10-13T03:45:10.140Z,82.27
2022-10-13T03:47:38.565Z,81.91
2022-10-13T03:50:07.768Z,82.08
2022-10-13T03:52:36.100Z,82.35
2022-10-13T03:55:04.797Z,82.86
2022-10-13T03:57:33.132Z,82.60
2022-10-13T04:00:01.844Z,82.60
2022-10-13T04:02:30.145Z,82.66
2022-10-13T04:04:59.423Z,83.02
2022-10-13T04:07:27.867Z,83.05
2022-10-13T04:09:56.274Z,82.64
2022-10-13T04:12:24.739Z,82.77
2022-10-13T04:14:53.077Z,82.58
2022-10-13T04:17:21.372Z,82.18
2022-10-13T04:19:49.663Z,82.28
2022-10-13T04:22:18.349Z,82.65
2022-10-13T04:24:49.476Z,82.90
2022-10-13T04:27:20.030Z,82.83
2022-10-13T04:29:48.456Z,82.92
2022-10-13T04:32:16.909Z,82.84
2022-10-13T04:34:45.540Z,82.56
2022-10-13T04:37:13.799Z,82.88
2022-10-13T04:39:42.141Z,83.09
2022-10-13T04:42:10.393Z,82.98
2022-10-13T04:44:39.408Z,82.79
2022-10-13T04:47:09.613Z,82.19
2022-10-13T04:49:37.920Z,81.93
2022-10-13T04:52:06.252Z,81.57
2022-10-13T04:54:34.646Z,81.40
2022-10-13T04:57:03.002Z,81.44
2022-10-13T04:59:31.293Z,81.54
2022-10-13T05:01:59.759Z,80.91
2022-10-13T05:04:28.154Z,80.94
2022-10-13T05:07:17.143Z,80.76
2022-10-13T05:09:46.879Z,80.49
2022-10-13T05:12:15.408Z,80.79
2022-10-13T05:14:43.609Z,80.78
2022-10-13T05:17:11.933Z,80.74
2022-10-13T05:19:40.477Z,81.06
2022-10-13T05:22:08.795Z,80.97
2022-10-13T05:24:37.249Z,80.92
2022-10-13T05:27:13.924Z,81.07
2022-10-13T05:29:42.277Z,81.32
2022-10-13T05:32:10.881Z,81.68
2022-10-13T05:34:39.288Z,81.56
2022-10-13T05:37:07.648Z,82.24
2022-10-13T05:39:36.033Z,82.49
2022-10-13T05:42:04.537Z,82.44
2022-10-13T05:44:32.857Z,82.48
2022-10-13T05:47:07.225Z,82.84
2022-10-13T05:49:40.005Z,82.93
2022-10-13T05:52:12.330Z,83.21
2022-10-13T05:54:47.083Z,83.07
2022-10-13T05:57:33.665Z,82.80
2022-10-13T06:00:19.523Z,82.70
2022-10-13T06:03:13.585Z,82.66
2022-10-13T06:05:47.615Z,82.74
2022-10-13T06:08:21.936Z,82.91
2022-10-13T06:11:07.981Z,83.22
2022-10-13T06:13:36.561Z,82.64
2022-10-13T06:16:14.686Z,82.78
2022-10-13T06:18:42.978Z,83.06
2022-10-13T06:21:11.275Z,83.25
2022-10-13T06:23:39.796Z,83.00
2022-10-13T06:26:09.379Z,82.66
2022-10-13T06:28:38.586Z,82.48
2022-10-13T06:31:07.364Z,82.10
2022-10-13T06:33:35.784Z,82.17
2022-10-13T06:36:07.768Z,82.17
2022-10-13T06:38:36.300Z,82.19
2022-10-13T06:41:06.437Z,82.04
2022-10-13T06:43:40.146Z,82.28
2022-10-13T06:46:12.537Z,82.65
2022-10-13T06:48:40.786Z,82.61
2022-10-13T06:51:11.693Z,82.38
2022-10-13T06:53:40.273Z,82.73
2022-10-13T06:56:09.484Z,82.94
2022-10-13T06:58:39.920Z,83.54
2022-10-13T07:01:13.014Z,83.93
2022-10-13T07:03:41.722Z,84.39
2022-10-13T07:06:11.261Z,84.83
2022-10-13T07:08:39.609Z,84.57
2022-10-13T07:11:15.963Z,84.49
2022-10-13T07:13:47.154Z,83.73
2022-10-13T07:16:17.111Z,83.26
2022-10-13T07:18:47.978Z,82.72
2022-10-13T07:21:16.436Z,82.54
2022-10-13T07:23:44.847Z,82.41
2022-10-13T07:26:16.337Z,82.38
2022-10-13T07:28:45.294Z,82.69
2022-10-13T07:31:17.638Z,83.35
2022-10-13T07:33:50.018Z,83.23
2022-10-13T07:36:19.438Z,83.51
2022-10-13T07:38:47.940Z,83.68
2022-10-13T07:41:16.509Z,84.02
2022-10-13T07:43:45.097Z,84.30
2022-10-13T07:46:13.938Z,84.11
2022-10-13T07:48:42.263Z,83.64
2022-10-13T07:51:13.661Z,83.44
2022-10-13T07:53:46.792Z,82.90
2022-10-13T07:56:16.604Z,82.68
2022-10-13T07:58:47.629Z,82.61
2022-10-13T08:01:17.069Z,82.49
2022-10-13T08:03:49.872Z,82.88
2022-10-13T08:06:19.838Z,83.31
2022-10-13T08:08:49.416Z,82.88
2022-10-13T08:11:21.072Z,82.47
2022-10-13T08:13:51.418Z,82.73
2022-10-13T08:16:23.286Z,82.68
2022-10-13T08:18:51.776Z,82.26
2022-10-13T08:24:14.228Z,82.11
2022-10-13T08:26:44.613Z,82.10
2022-10-13T08:29:21.808Z,82.73
2022-10-13T08:31:55.022Z,82.75
2022-10-13T08:34:24.929Z,83.22
2022-10-13T08:36:56.536Z,83.25
2022-10-13T08:39:25.749Z,82.39
2022-10-13T08:41:56.565Z,81.86
2022-10-13T08:45:10.420Z,81.59
2022-10-13T08:47:25.141Z,81.36
2022-10-13T08:50:00.217Z,81.60
2022-10-13T08:52:49.207Z,81.36
2022-10-13T08:55:31.972Z,80.79
2022-10-13T08:58:02.095Z,80.44
2022-10-13T09:00:31.265Z,80.23
2022-10-13T09:03:22.444Z,80.07
2022-10-13T09:06:10.153Z,80.21
2022-10-13T09:08:47.268Z,79.33
2022-10-13T09:11:25.798Z,79.21
2022-10-13T09:13:59.484Z,79.25
2022-10-13T09:16:41.506Z,79.22
2022-10-13T09:19:12.466Z,79.16
2022-10-13T09:21:41.973Z,78.90
2022-10-13T09:24:15.850Z,78.77
2022-10-13T09:26:46.473Z,78.96
2022-10-13T09:29:26.698Z,78.96
2022-10-13T09:32:10.229Z,78.95
2022-10-13T09:34:38.534Z,79.49
2022-10-13T09:37:18.026Z,79.90
2022-10-13T09:39:46.842Z,79.59
2022-10-13T09:42:27.813Z,79.12
2022-10-13T09:45:13.578Z,78.51
2022-10-13T09:47:49.221Z,78.91
2022-10-13T09:50:25.951Z,79.02
2022-10-13T09:53:22.178Z,79.10
2022-10-13T09:55:51.002Z,78.29
2022-10-13T09:58:30.395Z,77.55
2022-10-13T10:01:00.151Z,77.28
2022-10-13T10:03:33.784Z,76.80
2022-10-13T10:06:07.606Z,76.10
2022-10-13T10:09:03.291Z,76.59
2022-10-13T10:11:44.159Z,76.40
2022-10-13T10:14:28.567Z,75.84
2022-10-13T10:17:09.069Z,75.61
2022-10-13T10:20:18.994Z,74.92
2022-10-13T10:23:11.427Z,75.03
2022-10-13T10:25:47.924Z,74.56
2022-10-13T10:28:53.237Z,74.28
2022-10-13T10:31:39.179Z,74.26
2022-10-13T10:34:53.159Z,74.47
2022-10-13T10:37:54.713Z,74.10
2022-10-13T10:40:37.181Z,73.95
2022-10-13T10:43:31.262Z,74.30
2022-10-13T10:46:40.681Z,74.22
2022-10-13T10:49:32.654Z,74.46
2022-10-13T10:52:06.149Z,73.11
2022-10-13T10:55:30.357Z,72.93
2022-10-13T10:58:28.021Z,73.43
2022-10-13T11:01:12.572Z,73.56
2022-10-13T11:04:23.319Z,73.24
2022-10-13T11:06:51.688Z,73.08
2022-10-13T11:09:41.367Z,73.28
2022-10-13T11:12:19.308Z,73.66
2022-10-13T11:14:54.447Z,73.90
2022-10-13T11:17:37.113Z,73.76
2022-10-13T11:20:18.296Z,73.85
2022-10-13T11:23:12.646Z,73.34
2022-10-13T11:25:48.118Z,74.49
2022-10-13T11:28:22.664Z,73.96
2022-10-13T11:31:13.999Z,74.24
2022-10-13T11:33:43.229Z,74.25
2022-10-13T11:36:42.209Z,73.72
2022-10-13T11:39:28.849Z,73.15
2022-10-13T11:42:19.702Z,72.25
2022-10-13T11:45:32.629Z,72.87
2022-10-13T11:48:34.728Z,72.78
2022-10-13T11:51:23.965Z,73.19
2022-10-13T11:54:00.440Z,73.53
2022-10-13T11:56:48.522Z,73.62
2022-10-13T11:59:29.724Z,74.63
2022-10-13T12:02:12.493Z,73.90
2022-10-13T12:04:46.359Z,73.14
2022-10-13T12:07:17.409Z,73.08
2022-10-13T12:09:57.453Z,73.03
2022-10-13T12:12:26.196Z,73.39
2022-10-13T12:14:59.821Z,72.88
2022-10-13T12:17:39.184Z,72.42
2022-10-13T12:20:22.151Z,72.64
2022-10-13T12:22:52.665Z,72.24
2022-10-13T12:25:28.273Z,72.83
2022-10-13T12:28:03.133Z,72.73
2022-10-13T12:30:38.522Z,73.19
2022-10-13T12:33:26.519Z,73.12
2022-10-13T12:35:55.757Z,72.96
2022-10-13T12:38:24.346Z,73.25
2022-10-13T12:40:54.596Z,73.53
2022-10-13T12:43:26.107Z,73.98
2022-10-13T12:45:54.924Z,74.45
2022-10-13T12:48:41.039Z,74.81
2022-10-13T12:51:23.188Z,75.18
2022-10-13T12:53:51.569Z,75.65
2022-10-13T12:56:29.435Z,75.62
2022-10-13T12:58:58.968Z,75.64
2022-10-13T13:01:32.562Z,75.51
2022-10-13T13:04:23.952Z,75.74
2022-10-13T13:06:53.355Z,75.40
2022-10-13T13:09:28.762Z,75.56
2022-10-13T13:12:20.132Z,75.53
2022-10-13T13:14:53.375Z,75.51
2022-10-13T13:17:57.263Z,75.44
2022-10-13T13:20:32.921Z,74.94
2022-10-13T13:23:01.394Z,74.87
2022-10-13T13:25:29.885Z,74.65
2022-10-13T13:27:58.134Z,74.76
2022-10-13T13:30:26.812Z,74.56
2022-10-13T13:32:55.339Z,74.37
2022-10-13T13:35:26.646Z,74.30
2022-10-13T13:37:54.937Z,74.32
2022-10-13T13:40:28.019Z,73.89
2022-10-13T13:42:56.366Z,73.91
2022-10-13T13:45:26.995Z,73.15
2022-10-13T13:48:00.398Z,73.21
2022-10-13T13:50:36.364Z,72.91
2022-10-13T13:53:05.645Z,72.92
2022-10-13T13:55:34.131Z,72.72
2022-10-13T13:58:02.419Z,72.91
2022-10-13T14:00:30.908Z,72.64
2022-10-13T14:02:59.188Z,72.78
2022-10-13T14:05:27.574Z,72.79
2022-10-13T14:07:58.102Z,72.76
2022-10-13T14:10:26.909Z,72.34
2022-10-13T14:12:55.184Z,71.96
2022-10-13T14:15:28.740Z,71.80
2022-10-13T14:17:58.285Z,71.63
2022-10-13T14:20:26.580Z,72.07
2022-10-13T14:22:54.870Z,71.81
2022-10-13T14:25:23.130Z,71.51
2022-10-13T14:27:51.490Z,71.77
2022-10-13T14:30:19.881Z,72.12
2022-10-13T14:32:48.150Z,72.19
2022-10-13T14:35:16.615Z,72.35
2022-10-13T14:37:44.838Z,72.59
2022-10-13T14:40:13.107Z,72.55
2022-10-13T14:42:42.686Z,72.49
2022-10-13T14:45:16.028Z,72.65
2022-10-13T14:47:44.317Z,72.97
2022-10-13T14:50:12.647Z,73.18
2022-10-13T14:52:41.003Z,73.09
2022-10-13T14:55:09.661Z,73.23
2022-10-13T14:57:37.915Z,73.37
2022-10-13T15:00:06.829Z,73.41
2022-10-13T15:02:35.181Z,73.30
2022-10-13T15:05:03.622Z,73.18
2022-10-13T15:07:32.676Z,72.96
2022-10-13T15:10:05.353Z,73.21
2022-10-13T15:12:34.676Z,72.84
2022-10-13T15:15:04.201Z,72.98
2022-10-13T15:17:33.473Z,72.83
2022-10-13T15:20:01.867Z,73.13
2022-10-13T15:22:30.223Z,73.03
2022-10-13T15:24:58.511Z,72.97
2022-10-13T15:27:26.950Z,72.49
2022-10-13T15:29:55.314Z,72.34
2022-10-13T15:32:23.930Z,72.58
2022-10-13T15:34:56.017Z,72.29
2022-10-13T15:37:24.395Z,72.58
2022-10-13T15:39:57.071Z,72.51
2022-10-13T15:42:25.800Z,72.08
2022-10-13T15:45:11.151Z,72.24
2022-10-13T15:47:39.816Z,72.35
2022-10-13T15:50:09.895Z,72.32
2022-10-13T15:52:41.585Z,71.89
2022-10-13T15:55:12.104Z,71.92
2022-10-13T15:57:40.489Z,72.34
2022-10-13T16:00:11.948Z,72.43
2022-10-13T16:02:44.112Z,72.24
2022-10-13T16:05:13.522Z,72.09
2022-10-13T16:07:42.281Z,71.98
2022-10-13T16:10:13.542Z,72.19
2022-10-13T16:12:49.256Z,72.07
2022-10-13T16:15:18.893Z,71.97
2022-10-13T16:17:47.142Z,72.01
2022-10-13T16:20:15.438Z,72.03
2022-10-13T16:22:44.071Z,72.03
2022-10-13T16:25:12.726Z,71.91
2022-10-13T16:27:44.307Z,72.04
2022-10-13T16:30:13.547Z,72.07
2022-10-13T16:32:41.806Z,71.90
2022-10-13T16:35:10.139Z,71.79
2022-10-13T16:37:38.414Z,72.07
2022-10-13T16:40:07.743Z,71.94
2022-10-13T16:42:36.714Z,71.77
2022-10-13T16:45:05.969Z,71.66
2022-10-13T16:47:34.283Z,71.42
2022-10-13T16:50:06.460Z,71.16
2022-10-13T16:52:34.807Z,71.09
2022-10-13T16:55:05.552Z,71.16
2022-10-13T16:57:33.969Z,71.32
2022-10-13T17:00:02.389Z,71.68
2022-10-13T17:02:30.778Z,72.21
2022-10-13T17:04:59.106Z,72.39
2022-10-13T17:07:27.392Z,72.19
2022-10-13T17:09:55.920Z,72.26
2022-10-13T17:12:24.282Z,72.16
2022-10-13T17:14:52.575Z,72.03
2022-10-13T17:17:21.223Z,71.92
2022-10-13T17:19:50.136Z,72.01
2022-10-13T17:22:18.735Z,72.27
2022-10-13T17:24:48.563Z,72.06
2022-10-13T17:27:17.316Z,72.07
2022-10-13T17:29:45.915Z,72.21
2022-10-13T17:32:14.210Z,72.33
2022-10-13T17:34:42.570Z,72.38
2022-10-13T17:37:13.014Z,72.60
2022-10-13T17:39:41.375Z,72.36
2022-10-13T17:42:09.486Z,72.43
2022-10-13T17:44:37.819Z,72.13
2022-10-13T17:47:07.432Z,71.76
2022-10-13T17:49:35.701Z,71.84
2022-10-13T17:52:04.195Z,71.84
2022-10-13T17:54:32.821Z,71.68
2022-10-13T17:57:01.251Z,71.80
2022-10-13T17:59:29.830Z,71.76
2022-10-13T18:01:58.196Z,72.00
2022-10-13T18:04:29.133Z,72.40
2022-10-13T18:06:57.535Z,72.47
2022-10-13T18:09:25.910Z,72.72
2022-10-13T18:11:54.992Z,72.83
2022-10-13T18:14:25.509Z,73.00
2022-10-13T18:16:54.525Z,73.09
2022-10-13T18:19:23.215Z,73.16
2022-10-13T18:21:53.126Z,73.22
2022-10-13T18:24:21.503Z,73.30
2022-10-13T18:26:49.765Z,73.18
2022-10-13T18:29:18.040Z,73.17
2022-10-13T18:31:46.605Z,72.85
2022-10-13T18:34:17.783Z,72.94
2022-10-13T18:36:55.068Z,73.11
2022-10-13T18:39:27.222Z,73.10
2022-10-13T18:41:57.557Z,73.12
2022-10-13T18:44:33.107Z,73.14
2022-10-13T18:47:01.354Z,73.24
2022-10-13T18:49:33.452Z,73.19
2022-10-13T18:52:02.230Z,73.30
2022-10-13T18:54:31.113Z,73.29
2022-10-13T18:56:59.494Z,73.22
2022-10-13T18:59:28.002Z,73.49
2022-10-13T19:01:56.581Z,73.47
2022-10-13T19:04:26.406Z,73.52
2022-10-13T19:06:55.646Z,73.44
2022-10-13T19:09:25.154Z,73.53
2022-10-13T19:11:57.098Z,73.69
2022-10-13T19:14:25.852Z,73.58
2022-10-13T19:16:58.234Z,73.39
2022-10-13T19:19:31.177Z,73.35
2022-10-13T19:22:02.427Z,73.29
2022-10-13T19:24:31.018Z,73.08
2022-10-13T19:26:59.281Z,73.16
2022-10-13T19:29:27.659Z,73.51
2022-10-13T19:31:56.464Z,73.87
2022-10-13T19:34:24.842Z,74.23
2022-10-13T19:36:58.384Z,74.13
2022-10-13T19:39:26.754Z,74.23
2022-10-13T19:41:57.769Z,74.21
2022-10-13T19:44:26.125Z,73.87
2022-10-13T19:46:55.263Z,73.75
2022-10-13T19:49:26.609Z,73.86
2022-10-13T19:51:56.186Z,73.93
2022-10-13T19:54:24.669Z,73.58
2022-10-13T19:56:54.054Z,73.54
2022-10-13T19:59:22.550Z,73.69
2022-10-13T20:01:50.927Z,73.69
2022-10-13T20:04:20.732Z,73.75
2022-10-13T20:06:50.886Z,73.89
2022-10-13T20:09:20.374Z,74.18
2022-10-13T20:11:50.116Z,73.97
2022-10-13T20:14:19.018Z,74.17
2022-10-13T20:16:48.492Z,74.15
2022-10-13T20:19:19.657Z,74.21
2022-10-13T20:21:51.796Z,74.30
2022-10-13T20:24:22.244Z,74.15
2022-10-13T20:26:50.520Z,74.02
2022-10-13T20:29:23.422Z,73.82
2022-10-13T20:31:51.681Z,74.23
2022-10-13T20:34:19.985Z,74.48
2022-10-13T20:36:51.305Z,74.53
2022-10-13T20:39:20.567Z,74.57
2022-10-13T20:41:48.924Z,74.66
2022-10-13T20:44:18.946Z,74.84
2022-10-13T20:46:47.180Z,74.74
2022-10-13T20:49:15.530Z,74.96
2022-10-13T20:51:45.053Z,75.10
2022-10-13T20:54:15.437Z,74.91
2022-10-13T20:56:44.017Z,74.79
2022-10-13T20:59:16.714Z,75.14
2022-10-13T21:01:45.075Z,75.08
2022-10-13T21:04:13.458Z,75.14
2022-10-13T21:06:42.978Z,75.21
2022-10-13T21:09:11.801Z,75.61
2022-10-13T21:11:44.025Z,75.97
2022-10-13T21:14:12.377Z,75.96
2022-10-13T21:16:42.317Z,76.11
2022-10-13T21:19:11.110Z,76.15
2022-10-13T21:21:39.996Z,76.41
2022-10-13T21:24:10.150Z,76.47
2022-10-13T21:26:38.533Z,76.36
2022-10-13T21:29:07.256Z,76.24
2022-10-13T21:31:36.027Z,76.18
2022-10-13T21:34:04.640Z,76.20
2022-10-13T21:36:33.778Z,75.95
2022-10-13T21:39:06.218Z,76.16
2022-10-13T21:41:34.842Z,76.09
2022-10-13T21:44:03.993Z,76.21
2022-10-13T21:46:35.652Z,76.33
2022-10-13T21:49:06.587Z,76.39
2022-10-13T21:51:39.771Z,76.43
2022-10-13T21:54:12.157Z,76.51
2022-10-13T21:56:41.359Z,76.51
2022-10-13T21:59:12.496Z,76.54
2022-10-13T22:01:41.968Z,76.39
2022-10-13T22:04:14.868Z,76.29
2022-10-13T22:06:43.962Z,76.51
2022-10-13T22:09:13.286Z,76.54
2022-10-13T22:11:42.685Z,76.52
2022-10-13T22:14:14.222Z,76.35
2022-10-13T22:16:49.318Z,76.56
2022-10-13T22:19:19.386Z,76.49
2022-10-13T22:21:49.663Z,76.34
2022-10-13T22:24:21.258Z,76.55
2022-10-13T22:26:50.448Z,76.97
2022-10-13T22:29:21.572Z,77.39
2022-10-13T22:31:54.941Z,77.75
2022-10-13T22:34:24.454Z,78.14
2022-10-13T22:36:54.826Z,78.44
2022-10-13T22:39:23.710Z,78.57
2022-10-13T22:41:54.559Z,78.85
2022-10-13T22:44:23.027Z,79.32
2022-10-13T22:46:51.299Z,79.39
2022-10-13T22:49:19.696Z,79.63
2022-10-13T22:51:47.971Z,79.74
2022-10-13T22:54:16.258Z,79.75
2022-10-13T22:56:44.713Z,80.09
2022-10-13T22:59:14.150Z,80.24
2022-10-13T23:01:42.395Z,80.82
2022-10-13T23:04:10.984Z,81.37
2022-10-13T23:06:39.367Z,81.44
2022-10-13T23:09:12.921Z,81.58
2022-10-13T23:11:41.555Z,81.45
2022-10-13T23:14:12.796Z,81.77
2022-10-13T23:16:41.277Z,81.99
2022-10-13T23:19:09.640Z,82.15
2022-10-13T23:21:38.582Z,82.88
2022-10-13T23:24:07.669Z,83.02
2022-10-13T23:26:36.313Z,83.58
2022-10-13T23:29:05.618Z,83.67
2022-10-13T23:31:33.981Z,83.81
2022-10-13T23:34:02.386Z,83.85
2022-10-13T23:36:32.895Z,83.98
2022-10-13T23:39:05.883Z,84.02
2022-10-13T23:41:37.151Z,84.11
2022-10-13T23:44:06.304Z,84.43
2022-10-13T23:46:34.824Z,84.71
2022-10-13T23:49:03.203Z,84.95
2022-10-13T23:51:32.584Z,85.01
2022-10-13T23:54:00.872Z,85.16
2022-10-13T23:56:29.258Z,85.07
2022-10-13T23:58:57.533Z,84.81
